Time;durP1;ratioP1;P1;durP2;ratioP2;P2;SDS_P1;SDS_P2;PMS_P1;PMS_P2;Temp;Humidity;BMP_temperature;BMP_pressure;BME280_temperature;BME280_humidity;BME280_pressure;Samples;Min_cycle;Max_cycle;Signal;HPM_P1;HPM_P2
2023/06/30 00:02:12;;;;;;;12.02;3.80;;;;;;;;;;5042354;28;20049;-74
2023/06/30 00:04:38;;;;;;;13.48;4.25;;;;;;;;;;5053151;28;20045;-74
2023/06/30 00:07:05;;;;;;;11.68;4.38;;;;;;;;;;5053263;28;20052;-75
2023/06/30 00:09:31;;;;;;;11.23;3.83;;;;;;;;;;5052072;28;20189;-74
2023/06/30 00:11:57;;;;;;;11.52;4.20;;;;;;;;;;5054247;28;20066;-75
2023/06/30 00:14:24;;;;;;;14.23;4.25;;;;;;;;;;5054112;28;20415;-75
2023/06/30 00:16:50;;;;;;;12.10;4.13;;;;;;;;;;5054435;28;20037;-74
2023/06/30 00:19:17;;;;;;;14.63;5.10;;;;;;;;;;5053805;28;20045;-75
2023/06/30 00:21:43;;;;;;;12.77;4.55;;;;;;;;;;5035454;28;20042;-74
2023/06/30 00:24:10;;;;;;;13.65;4.63;;;;;;;;;;5049918;28;20152;-74
2023/06/30 00:26:37;;;;;;;10.13;3.83;;;;;;;;;;5053938;28;20044;-75
2023/06/30 00:29:03;;;;;;;12.00;3.85;;;;;;;;;;5056187;28;20076;-74
2023/06/30 00:31:29;;;;;;;13.75;4.55;;;;;;;;;;5055925;28;20076;-75
2023/06/30 00:33:56;;;;;;;12.18;4.15;;;;;;;;;;5051572;28;20507;-75
2023/06/30 00:36:23;;;;;;;12.77;4.15;;;;;;;;;;5055803;28;20045;-75
2023/06/30 00:38:51;;;;;;;13.18;4.70;;;;;;;;;;5056825;28;20049;-75
2023/06/30 00:41:17;;;;;;;12.05;4.20;;;;;;;;;;5050654;28;20415;-75
2023/06/30 00:43:43;;;;;;;10.68;4.15;;;;;;;;;;5055895;28;20049;-75
2023/06/30 00:46:10;;;;;;;10.88;3.50;;;;;;;;;;5055096;28;20056;-74
2023/06/30 00:48:36;;;;;;;12.38;4.00;;;;;;;;;;5057703;28;20402;-74
2023/06/30 00:51:03;;;;;;;11.50;3.53;;;;;;;;;;5053957;28;20546;-75
2023/06/30 00:53:29;;;;;;;11.85;4.13;;;;;;;;;;5056738;28;20045;-75
2023/06/30 00:55:55;;;;;;;14.60;3.88;;;;;;;;;;5056326;28;20045;-75
2023/06/30 00:58:21;;;;;;;12.80;3.88;;;;;;;;;;5055024;28;20051;-75
2023/06/30 01:00:47;;;;;;;13.15;3.95;;;;;;;;;;5056649;28;20044;-74
2023/06/30 01:03:32;;;;;;;14.90;4.50;;;;;;;;;;5063309;28;20049;-73
2023/06/30 01:06:01;;;;;;;12.50;4.00;;;;;;;;;;5059227;28;20394;-74
2023/06/30 01:08:34;;;;;;;14.25;3.78;;;;;;;;;;5056976;28;20041;-75
2023/06/30 01:11:01;;;;;;;13.25;3.78;;;;;;;;;;5056308;28;20044;-74
2023/06/30 01:13:28;;;;;;;10.93;3.53;;;;;;;;;;5052601;28;20045;-74
2023/06/30 01:15:56;;;;;;;14.68;4.00;;;;;;;;;;5054174;28;20155;-74
2023/06/30 01:18:22;;;;;;;15.82;4.15;;;;;;;;;;5055719;28;20048;-75
2023/06/30 01:20:49;;;;;;;13.20;3.85;;;;;;;;;;5056628;28;20110;-75
2023/06/30 01:23:27;;;;;;;12.95;3.78;;;;;;;;;;5056261;28;20045;-75
2023/06/30 01:25:54;;;;;;;13.35;3.88;;;;;;;;;;5056016;28;20049;-74
2023/06/30 01:28:20;;;;;;;17.35;4.30;;;;;;;;;;5055342;28;20063;-74
2023/06/30 01:30:47;;;;;;;9.88;3.67;;;;;;;;;;5051952;28;20045;-74
2023/06/30 01:33:13;;;;;;;11.18;3.70;;;;;;;;;;5039651;28;20040;-75
2023/06/30 01:35:40;;;;;;;8.88;3.30;;;;;;;;;;5052352;28;20167;-74
2023/06/30 01:38:06;;;;;;;12.93;3.30;;;;;;;;;;5051691;28;20036;-75
2023/06/30 01:40:32;;;;;;;11.25;3.17;;;;;;;;;;5053303;28;20127;-75
2023/06/30 01:42:58;;;;;;;13.18;3.83;;;;;;;;;;5053585;28;20037;-76
2023/06/30 01:45:25;;;;;;;15.15;4.00;;;;;;;;;;5054618;28;20134;-76
2023/06/30 01:47:52;;;;;;;13.52;4.32;;;;;;;;;;5055243;28;20080;-75
2023/06/30 01:50:18;;;;;;;13.50;4.13;;;;;;;;;;5055315;28;20128;-75
2023/06/30 01:52:45;;;;;;;10.75;3.45;;;;;;;;;;5037872;28;20103;-75
2023/06/30 01:55:11;;;;;;;8.48;3.40;;;;;;;;;;5044017;28;20404;-75
2023/06/30 01:57:37;;;;;;;11.30;3.90;;;;;;;;;;5049284;28;20432;-75
2023/06/30 02:00:05;;;;;;;12.73;3.47;;;;;;;;;;5055248;28;20045;-75
2023/06/30 02:02:31;;;;;;;10.90;3.75;;;;;;;;;;5056361;28;20049;-75
2023/06/30 02:04:58;;;;;;;10.20;4.57;;;;;;;;;;5053607;28;20388;-75
2023/06/30 02:07:24;;;;;;;12.02;3.60;;;;;;;;;;5054390;28;20045;-75
2023/06/30 02:09:50;;;;;;;10.75;3.95;;;;;;;;;;5055457;28;20158;-75
2023/06/30 02:12:16;;;;;;;12.75;3.72;;;;;;;;;;5055145;28;20057;-75
2023/06/30 02:14:42;;;;;;;14.60;4.20;;;;;;;;;;5056759;28;20135;-75
2023/06/30 02:17:13;;;;;;;13.45;3.53;;;;;;;;;;5057184;28;20041;-75
2023/06/30 02:19:39;;;;;;;11.57;3.50;;;;;;;;;;5055350;28;20045;-75
2023/06/30 02:22:05;;;;;;;11.02;3.20;;;;;;;;;;5056400;28;20443;-75
2023/06/30 02:24:31;;;;;;;13.02;4.07;;;;;;;;;;5055263;28;20047;-75
2023/06/30 02:26:58;;;;;;;9.90;3.53;;;;;;;;;;5054782;28;20391;-76
2023/06/30 02:29:24;;;;;;;11.75;3.88;;;;;;;;;;5044470;28;20056;-74
2023/06/30 02:31:50;;;;;;;11.00;3.45;;;;;;;;;;5052634;28;20052;-74
2023/06/30 02:34:16;;;;;;;13.13;3.67;;;;;;;;;;5054538;28;20394;-75
2023/06/30 02:36:42;;;;;;;10.60;3.35;;;;;;;;;;5053870;28;20066;-75
2023/06/30 02:39:08;;;;;;;12.90;3.40;;;;;;;;;;5053911;28;20045;-75
2023/06/30 02:41:34;;;;;;;14.52;4.05;;;;;;;;;;5056161;28;20041;-74
2023/06/30 02:44:00;;;;;;;10.80;3.83;;;;;;;;;;5054729;28;20053;-75
2023/06/30 02:46:29;;;;;;;10.50;3.40;;;;;;;;;;5056391;28;20053;-75
2023/06/30 02:48:55;;;;;;;14.05;3.70;;;;;;;;;;5046157;28;20040;-75
2023/06/30 02:51:22;;;;;;;13.07;3.75;;;;;;;;;;5055727;28;20049;-75
2023/06/30 02:53:48;;;;;;;11.45;3.15;;;;;;;;;;5054841;28;20060;-75
2023/06/30 02:56:14;;;;;;;12.02;3.80;;;;;;;;;;5055886;28;20049;-74
2023/06/30 02:58:40;;;;;;;12.32;3.33;;;;;;;;;;5054592;28;20054;-74
2023/06/30 03:01:07;;;;;;;9.63;3.20;;;;;;;;;;5055291;28;20041;-75
2023/06/30 03:03:33;;;;;;;13.57;3.47;;;;;;;;;;5054724;28;20045;-75
2023/06/30 03:05:59;;;;;;;11.52;3.58;;;;;;;;;;5056035;28;20098;-75
2023/06/30 03:08:26;;;;;;;14.43;3.47;;;;;;;;;;5057182;28;20048;-75
2023/06/30 03:10:52;;;;;;;11.00;3.72;;;;;;;;;;5052126;28;20049;-75
2023/06/30 03:13:18;;;;;;;12.95;3.28;;;;;;;;;;5055922;28;20052;-75
2023/06/30 03:15:44;;;;;;;11.77;3.97;;;;;;;;;;5056026;28;20166;-75
2023/06/30 03:18:10;;;;;;;12.00;3.47;;;;;;;;;;5053333;28;20562;-75
2023/06/30 03:20:36;;;;;;;9.25;3.47;;;;;;;;;;5047146;28;20056;-75
2023/06/30 03:23:02;;;;;;;9.55;3.53;;;;;;;;;;5055822;28;20052;-75
2023/06/30 03:25:28;;;;;;;9.20;3.72;;;;;;;;;;5037538;28;20095;-75
2023/06/30 03:27:54;;;;;;;11.15;3.83;;;;;;;;;;5054710;28;20041;-75
2023/06/30 03:30:20;;;;;;;14.30;3.63;;;;;;;;;;5055907;28;20380;-75
2023/06/30 03:32:47;;;;;;;14.48;3.97;;;;;;;;;;5049699;28;20037;-75
2023/06/30 03:35:13;;;;;;;11.02;3.47;;;;;;;;;;5054197;28;20044;-75
2023/06/30 03:37:39;;;;;;;13.00;3.47;;;;;;;;;;5046421;28;20049;-75
2023/06/30 03:40:05;;;;;;;9.35;3.05;;;;;;;;;;5053180;28;20080;-75
2023/06/30 03:42:31;;;;;;;11.82;3.75;;;;;;;;;;5057264;28;20102;-74
2023/06/30 03:44:59;;;;;;;14.95;3.30;;;;;;;;;;5055687;28;20044;-75
2023/06/30 03:47:25;;;;;;;11.77;3.53;;;;;;;;;;5044427;28;20053;-75
2023/06/30 03:49:52;;;;;;;9.25;3.47;;;;;;;;;;5054046;28;20503;-76
2023/06/30 03:52:18;;;;;;;11.27;3.63;;;;;;;;;;5049253;28;20144;-75
2023/06/30 03:54:44;;;;;;;9.82;3.25;;;;;;;;;;5053748;28;20041;-75
2023/06/30 03:57:10;;;;;;;10.75;3.58;;;;;;;;;;5042375;28;20061;-74
2023/06/30 03:59:36;;;;;;;10.82;3.67;;;;;;;;;;5051969;28;20061;-75
2023/06/30 04:02:02;;;;;;;11.90;3.10;;;;;;;;;;5060349;28;20053;-74
2023/06/30 04:04:28;;;;;;;12.95;3.00;;;;;;;;;;5058262;28;20049;-74
2023/06/30 04:06:54;;;;;;;13.88;3.30;;;;;;;;;;5060285;28;20076;-75
2023/06/30 04:09:20;;;;;;;10.88;3.35;;;;;;;;;;5058934;28;20044;-75
2023/06/30 04:11:48;;;;;;;11.07;3.10;;;;;;;;;;5060283;28;20055;-76
2023/06/30 04:14:14;;;;;;;9.98;2.80;;;;;;;;;;5054844;28;20045;-75
2023/06/30 04:16:40;;;;;;;13.95;3.05;;;;;;;;;;5045232;28;20053;-75
2023/06/30 04:19:06;;;;;;;10.30;2.83;;;;;;;;;;5046068;28;20124;-76
2023/06/30 04:21:32;;;;;;;10.45;2.70;;;;;;;;;;5052113;28;20460;-75
2023/06/30 04:23:58;;;;;;;9.35;2.80;;;;;;;;;;5045216;28;20151;-75
2023/06/30 04:26:24;;;;;;;11.85;2.83;;;;;;;;;;5037427;28;20045;-75
2023/06/30 04:28:50;;;;;;;11.70;3.10;;;;;;;;;;5057222;28;20072;-75
2023/06/30 04:31:17;;;;;;;13.07;3.47;;;;;;;;;;5058789;28;20099;-74
2023/06/30 04:33:43;;;;;;;12.10;3.33;;;;;;;;;;5059617;28;20049;-74
2023/06/30 04:36:09;;;;;;;12.00;2.90;;;;;;;;;;5058365;28;20430;-74
2023/06/30 04:38:35;;;;;;;9.80;3.30;;;;;;;;;;5053913;28;20587;-75
2023/06/30 04:41:01;;;;;;;9.23;2.95;;;;;;;;;;5055847;28;20064;-75
2023/06/30 04:43:27;;;;;;;10.98;2.80;;;;;;;;;;5057961;28;20091;-75
2023/06/30 04:45:53;;;;;;;8.60;2.92;;;;;;;;;;5058552;28;20057;-75
2023/06/30 04:48:19;;;;;;;10.80;2.92;;;;;;;;;;5056783;28;20049;-75
2023/06/30 04:50:45;;;;;;;9.30;3.08;;;;;;;;;;5044365;28;20056;-74
2023/06/30 04:53:11;;;;;;;10.65;2.60;;;;;;;;;;5049446;28;20037;-75
2023/06/30 04:55:37;;;;;;;10.10;2.83;;;;;;;;;;5056395;28;20048;-74
2023/06/30 04:58:03;;;;;;;14.60;3.13;;;;;;;;;;5049941;28;20046;-75
2023/06/30 05:00:29;;;;;;;10.43;3.17;;;;;;;;;;5046979;28;20060;-75
2023/06/30 05:02:56;;;;;;;12.02;3.50;;;;;;;;;;5058337;28;20052;-75
2023/06/30 05:05:22;;;;;;;10.00;2.90;;;;;;;;;;5058152;28;20144;-75
2023/06/30 05:07:48;;;;;;;12.82;3.58;;;;;;;;;;5054861;28;20052;-75
2023/06/30 05:10:14;;;;;;;11.10;3.60;;;;;;;;;;5051221;28;20076;-74
2023/06/30 05:12:40;;;;;;;11.55;3.13;;;;;;;;;;5046018;28;20375;-76
2023/06/30 05:15:07;;;;;;;9.07;2.90;;;;;;;;;;5050032;28;20124;-75
2023/06/30 05:17:33;;;;;;;9.85;2.83;;;;;;;;;;5045484;28;20049;-75
2023/06/30 05:20:04;;;;;;;14.02;3.22;;;;;;;;;;5058662;28;20049;-76
2023/06/30 05:22:30;;;;;;;10.10;2.90;;;;;;;;;;5058457;28;20045;-75
2023/06/30 05:24:57;;;;;;;9.88;2.88;;;;;;;;;;5053572;28;20041;-74
2023/06/30 05:27:23;;;;;;;12.02;2.92;;;;;;;;;;5061446;28;20057;-74
2023/06/30 05:29:49;;;;;;;13.10;3.30;;;;;;;;;;5058532;28;20045;-74
2023/06/30 05:32:15;;;;;;;11.10;2.95;;;;;;;;;;5059875;28;20049;-75
2023/06/30 05:34:42;;;;;;;8.68;3.15;;;;;;;;;;5055831;28;20462;-74
2023/06/30 05:37:09;;;;;;;12.13;2.67;;;;;;;;;;5057859;28;20044;-75
2023/06/30 05:39:35;;;;;;;9.48;2.60;;;;;;;;;;5058422;28;20049;-76
2023/06/30 05:42:02;;;;;;;8.52;2.50;;;;;;;;;;5058367;28;20076;-75
2023/06/30 05:44:28;;;;;;;9.35;2.28;;;;;;;;;;5059130;28;20533;-75
2023/06/30 05:46:54;;;;;;;10.82;2.25;;;;;;;;;;5057799;28;20090;-75
2023/06/30 05:49:20;;;;;;;8.88;2.15;;;;;;;;;;5057920;28;20097;-75
2023/06/30 05:51:46;;;;;;;8.48;2.10;;;;;;;;;;5059074;28;20087;-76
2023/06/30 05:54:12;;;;;;;8.93;1.98;;;;;;;;;;5059161;28;20048;-76
2023/06/30 05:56:38;;;;;;;9.95;2.22;;;;;;;;;;5053749;28;20041;-76
2023/06/30 05:59:09;;;;;;;8.63;1.80;;;;;;;;;;5028725;28;20059;-75
2023/06/30 06:01:38;;;;;;;7.25;1.90;;;;;;;;;;5060590;28;20066;-75
2023/06/30 06:04:04;;;;;;;9.73;1.73;;;;;;;;;;5058083;28;20061;-75
2023/06/30 06:06:30;;;;;;;8.77;1.90;;;;;;;;;;5056492;28;20091;-75
2023/06/30 06:08:56;;;;;;;11.70;2.45;;;;;;;;;;5056890;28;20057;-80
2023/06/30 06:11:22;;;;;;;6.60;1.65;;;;;;;;;;5055691;28;20182;-75
2023/06/30 06:13:48;;;;;;;7.55;1.83;;;;;;;;;;5061892;28;20511;-76
2023/06/30 06:16:15;;;;;;;6.38;1.65;;;;;;;;;;5061805;28;20041;-76
2023/06/30 06:18:41;;;;;;;9.50;2.38;;;;;;;;;;5057750;28;20056;-76
2023/06/30 06:21:07;;;;;;;9.95;1.90;;;;;;;;;;5055245;28;20046;-75
2023/06/30 06:23:33;;;;;;;7.20;1.80;;;;;;;;;;5054708;28;20052;-76
2023/06/30 06:26:00;;;;;;;7.93;1.70;;;;;;;;;;5045445;28;20037;-76
2023/06/30 06:28:26;;;;;;;8.90;1.77;;;;;;;;;;5062867;28;20051;-76
2023/06/30 06:30:52;;;;;;;8.60;1.88;;;;;;;;;;5060653;28;20060;-76
2023/06/30 06:33:18;;;;;;;8.98;1.75;;;;;;;;;;5060944;28;20044;-74
2023/06/30 06:35:44;;;;;;;9.80;1.60;;;;;;;;;;5057962;28;20091;-75
2023/06/30 06:38:10;;;;;;;7.70;1.70;;;;;;;;;;5062501;28;20052;-75
2023/06/30 06:40:36;;;;;;;7.22;1.67;;;;;;;;;;5060134;28;20124;-75
2023/06/30 06:43:02;;;;;;;5.18;1.35;;;;;;;;;;5061951;28;20072;-74
2023/06/30 06:45:28;;;;;;;12.50;1.85;;;;;;;;;;5062169;28;20045;-75
2023/06/30 06:48:13;;;;;;;9.30;1.70;;;;;;;;;;5062507;28;20044;-76
2023/06/30 06:50:39;;;;;;;9.52;1.60;;;;;;;;;;5062253;28;20122;-76
2023/06/30 06:53:05;;;;;;;13.93;1.70;;;;;;;;;;5062573;28;20079;-75
2023/06/30 06:55:31;;;;;;;9.07;2.08;;;;;;;;;;5055511;28;20099;-75
2023/06/30 06:57:57;;;;;;;6.90;1.80;;;;;;;;;;5045596;28;20053;-75
2023/06/30 07:00:23;;;;;;;6.63;1.30;;;;;;;;;;5049333;28;20088;-75
2023/06/30 07:02:49;;;;;;;6.45;1.60;;;;;;;;;;5056837;28;20049;-77
2023/06/30 07:05:15;;;;;;;8.25;1.50;;;;;;;;;;5057394;28;20053;-75
2023/06/30 07:07:41;;;;;;;25.60;2.55;;;;;;;;;;5058405;28;20041;-76
2023/06/30 07:10:08;;;;;;;7.22;1.98;;;;;;;;;;5058069;28;20084;-76
2023/06/30 07:12:34;;;;;;;5.32;1.27;;;;;;;;;;5058490;28;20052;-75
2023/06/30 07:15:00;;;;;;;9.50;1.80;;;;;;;;;;5057248;28;20388;-73
2023/06/30 07:17:26;;;;;;;7.45;1.67;;;;;;;;;;5058521;28;20059;-76
2023/06/30 07:19:52;;;;;;;7.80;1.55;;;;;;;;;;5058720;28;20045;-76
2023/06/30 07:22:18;;;;;;;6.45;1.40;;;;;;;;;;5059543;28;20052;-75
2023/06/30 07:24:44;;;;;;;6.55;1.20;;;;;;;;;;5057921;28;20372;-75
2023/06/30 07:27:10;;;;;;;6.45;1.48;;;;;;;;;;5056453;28;20059;-74
2023/06/30 07:29:36;;;;;;;9.65;1.60;;;;;;;;;;5057596;28;20064;-74
2023/06/30 07:32:02;;;;;;;5.88;1.30;;;;;;;;;;5058038;28;20045;-75
2023/06/30 07:34:30;;;;;;;6.97;1.33;;;;;;;;;;5059372;28;20045;-74
2023/06/30 07:36:56;;;;;;;6.20;1.58;;;;;;;;;;5063350;28;20041;-74
2023/06/30 07:39:22;;;;;;;7.65;1.50;;;;;;;;;;5060852;28;20053;-73
2023/06/30 07:41:51;;;;;;;6.88;1.15;;;;;;;;;;5064053;28;20045;-75
2023/06/30 07:44:17;;;;;;;8.43;1.50;;;;;;;;;;5061893;28;20056;-74
2023/06/30 07:46:43;;;;;;;7.35;1.30;;;;;;;;;;5060060;28;20067;-74
2023/06/30 07:49:09;;;;;;;4.85;1.08;;;;;;;;;;5052773;28;20037;-75
2023/06/30 07:51:35;;;;;;;5.53;1.40;;;;;;;;;;5062340;28;20559;-74
2023/06/30 07:54:01;;;;;;;6.88;1.20;;;;;;;;;;5062280;28;20122;-75
2023/06/30 07:56:28;;;;;;;8.10;1.40;;;;;;;;;;5061128;28;20052;-77
2023/06/30 07:58:54;;;;;;;7.53;1.20;;;;;;;;;;5050274;28;20049;-74
2023/06/30 08:01:20;;;;;;;8.90;1.50;;;;;;;;;;5040398;28;20085;-75
2023/06/30 08:03:48;;;;;;;4.90;1.30;;;;;;;;;;5039860;28;20124;-75
2023/06/30 08:06:14;;;;;;;5.00;1.20;;;;;;;;;;5058106;28;21018;-73
2023/06/30 08:08:40;;;;;;;5.95;1.17;;;;;;;;;;5041765;28;20153;-74
2023/06/30 08:11:07;;;;;;;5.60;1.10;;;;;;;;;;5060729;28;20037;-75
2023/06/30 08:13:33;;;;;;;6.68;1.10;;;;;;;;;;5053649;28;20068;-75
2023/06/30 08:15:59;;;;;;;6.63;1.33;;;;;;;;;;5061772;28;20052;-74
2023/06/30 08:18:28;;;;;;;5.70;1.25;;;;;;;;;;5057459;28;20045;-75
2023/06/30 08:20:55;;;;;;;6.70;1.17;;;;;;;;;;5062800;28;20108;-75
2023/06/30 08:23:22;;;;;;;6.78;1.17;;;;;;;;;;5067557;28;20044;-75
2023/06/30 08:25:48;;;;;;;5.78;1.50;;;;;;;;;;5056307;28;20052;-75
2023/06/30 08:28:14;;;;;;;5.72;1.05;;;;;;;;;;5060822;28;20048;-74
2023/06/30 08:30:40;;;;;;;4.93;1.20;;;;;;;;;;5061040;28;20112;-75
2023/06/30 08:33:06;;;;;;;6.15;1.23;;;;;;;;;;5058551;28;20383;-74
2023/06/30 08:35:32;;;;;;;3.83;1.05;;;;;;;;;;5059395;28;20044;-76
2023/06/30 08:37:58;;;;;;;6.32;1.20;;;;;;;;;;5060444;28;20045;-75
2023/06/30 08:40:30;;;;;;;5.72;1.40;;;;;;;;;;5059288;28;20128;-74
2023/06/30 08:42:58;;;;;;;5.97;1.25;;;;;;;;;;5060009;28;20114;-75
2023/06/30 08:45:28;;;;;;;5.40;1.23;;;;;;;;;;5058463;28;20114;-75
2023/06/30 08:47:56;;;;;;;5.72;1.08;;;;;;;;;;5061279;28;20091;-75
2023/06/30 08:50:22;;;;;;;6.40;1.30;;;;;;;;;;5059776;28;20448;-74
2023/06/30 08:52:48;;;;;;;5.47;1.35;;;;;;;;;;5055826;28;20088;-75
2023/06/30 08:55:14;;;;;;;7.00;1.42;;;;;;;;;;5052105;28;20049;-74
2023/06/30 08:57:41;;;;;;;4.53;1.00;;;;;;;;;;5059334;28;20573;-74
2023/06/30 09:00:08;;;;;;;6.43;1.38;;;;;;;;;;5059468;28;20049;-74
2023/06/30 09:02:35;;;;;;;6.30;1.20;;;;;;;;;;5058061;28;20057;-75
2023/06/30 09:05:02;;;;;;;5.20;1.27;;;;;;;;;;5058588;28;20037;-75
2023/06/30 09:07:31;;;;;;;6.18;1.10;;;;;;;;;;5058608;28;20049;-75
2023/06/30 09:09:59;;;;;;;5.93;1.20;;;;;;;;;;5054878;28;20099;-75
2023/06/30 09:12:27;;;;;;;6.55;1.23;;;;;;;;;;5057810;28;20049;-75
2023/06/30 09:14:54;;;;;;;8.50;1.35;;;;;;;;;;5053255;28;20049;-74
2023/06/30 09:17:20;;;;;;;5.43;1.27;;;;;;;;;;5051690;28;20041;-74
2023/06/30 09:19:46;;;;;;;6.20;1.20;;;;;;;;;;5055811;28;20332;-74
2023/06/30 09:22:12;;;;;;;6.03;1.25;;;;;;;;;;5053715;28;20049;-75
2023/06/30 09:24:39;;;;;;;4.63;0.85;;;;;;;;;;5050465;28;20122;-74
2023/06/30 09:27:05;;;;;;;6.25;1.10;;;;;;;;;;5058647;28;20043;-74
2023/06/30 09:29:35;;;;;;;5.28;1.13;;;;;;;;;;5056532;28;20060;-74
2023/06/30 09:32:02;;;;;;;5.35;1.00;;;;;;;;;;5056726;28;20053;-74
2023/06/30 09:34:28;;;;;;;4.70;1.30;;;;;;;;;;5058334;28;20109;-75
2023/06/30 09:36:55;;;;;;;6.22;1.30;;;;;;;;;;5056460;28;20033;-75
2023/06/30 09:39:22;;;;;;;4.30;1.00;;;;;;;;;;5060380;28;20041;-75
2023/06/30 09:41:49;;;;;;;7.80;1.08;;;;;;;;;;5043816;28;20045;-75
2023/06/30 09:44:20;;;;;;;6.22;1.10;;;;;;;;;;5063658;28;20060;-76
2023/06/30 09:46:50;;;;;;;5.10;1.20;;;;;;;;;;5065086;28;20049;-76
2023/06/30 09:49:23;;;;;;;6.90;1.13;;;;;;;;;;5063208;28;20053;-75
2023/06/30 09:51:49;;;;;;;4.47;1.10;;;;;;;;;;5056215;28;20041;-76
2023/06/30 09:54:18;;;;;;;5.50;1.30;;;;;;;;;;5055274;28;20038;-75
2023/06/30 09:56:45;;;;;;;5.43;1.10;;;;;;;;;;5072429;28;20049;-75
2023/06/30 09:59:12;;;;;;;10.60;1.50;;;;;;;;;;5064383;28;20518;-75
2023/06/30 10:01:39;;;;;;;5.60;1.10;;;;;;;;;;5062792;28;20049;-75
2023/06/30 10:04:05;;;;;;;5.22;1.33;;;;;;;;;;5058705;28;20053;-75
2023/06/30 10:06:32;;;;;;;5.45;1.40;;;;;;;;;;5062968;28;20043;-76
2023/06/30 10:08:59;;;;;;;5.60;1.17;;;;;;;;;;5060802;28;20105;-76
2023/06/30 10:11:26;;;;;;;7.93;1.30;;;;;;;;;;5057680;28;20045;-76
2023/06/30 10:13:53;;;;;;;4.47;1.13;;;;;;;;;;5052174;28;20090;-75
2023/06/30 10:16:21;;;;;;;5.68;1.10;;;;;;;;;;5051539;28;20055;-75
2023/06/30 10:18:48;;;;;;;7.82;1.25;;;;;;;;;;5060683;28;20052;-77
2023/06/30 10:21:14;;;;;;;5.25;0.93;;;;;;;;;;5058748;28;20052;-75
2023/06/30 10:23:42;;;;;;;5.85;1.20;;;;;;;;;;5058175;28;20041;-74
2023/06/30 10:26:10;;;;;;;6.10;1.17;;;;;;;;;;5057551;28;20053;-75
2023/06/30 10:28:36;;;;;;;8.13;1.27;;;;;;;;;;5062139;28;20124;-76
2023/06/30 10:31:03;;;;;;;6.88;1.20;;;;;;;;;;5056020;28;20087;-75
2023/06/30 10:33:29;;;;;;;6.18;1.40;;;;;;;;;;5055685;28;20060;-75
2023/06/30 10:35:56;;;;;;;5.28;0.90;;;;;;;;;;5043811;28;20109;-76
2023/06/30 10:38:22;;;;;;;4.45;0.90;;;;;;;;;;5045247;28;20045;-75
2023/06/30 10:40:48;;;;;;;4.10;0.80;;;;;;;;;;5059060;28;20087;-76
2023/06/30 10:43:14;;;;;;;4.40;1.08;;;;;;;;;;5061164;28;20200;-75
2023/06/30 10:45:59;;;;;;;6.00;1.00;;;;;;;;;;5062340;28;20053;-75
2023/06/30 10:48:27;;;;;;;3.53;0.80;;;;;;;;;;5054934;28;20106;-75
2023/06/30 10:50:54;;;;;;;5.15;0.90;;;;;;;;;;5060218;28;20049;-75
2023/06/30 10:53:20;;;;;;;3.50;0.95;;;;;;;;;;5056065;28;20144;-75
2023/06/30 10:55:47;;;;;;;3.72;1.00;;;;;;;;;;5051931;28;20423;-74
2023/06/30 10:58:26;;;;;;;3.50;0.90;;;;;;;;;;5054095;28;20057;-76
2023/06/30 11:01:05;;;;;;;3.70;0.82;;;;;;;;;;5053696;28;20049;-73
2023/06/30 11:03:49;;;;;;;5.40;1.40;;;;;;;;;;5055460;28;20037;-75
2023/06/30 11:06:16;;;;;;;5.40;0.95;;;;;;;;;;5049693;28;20064;-73
2023/06/30 11:08:59;;;;;;;7.38;1.30;;;;;;;;;;5051442;28;20037;-73
2023/06/30 11:11:27;;;;;;;5.13;1.02;;;;;;;;;;5052910;28;20049;-73
2023/06/30 11:14:13;;;;;;;6.80;1.08;;;;;;;;;;5055582;28;20080;-73
2023/06/30 11:16:58;;;;;;;4.88;0.82;;;;;;;;;;5057794;28;20047;-73
2023/06/30 11:19:24;;;;;;;5.80;1.10;;;;;;;;;;5054179;28;20041;-74
2023/06/30 11:22:09;;;;;;;4.47;1.10;;;;;;;;;;5053622;28;20084;-75
2023/06/30 11:24:35;;;;;;;7.18;1.00;;;;;;;;;;5044082;28;20045;-74
2023/06/30 11:27:04;;;;;;;6.05;1.10;;;;;;;;;;5043232;28;20041;-73
2023/06/30 11:29:30;;;;;;;3.90;0.82;;;;;;;;;;5054081;28;20045;-76
2023/06/30 11:31:56;;;;;;;4.57;1.00;;;;;;;;;;5050841;28;20056;-74
2023/06/30 11:34:22;;;;;;;3.63;0.80;;;;;;;;;;5054016;28;20041;-74
2023/06/30 11:36:48;;;;;;;7.80;1.00;;;;;;;;;;5055951;28;20094;-74
2023/06/30 11:39:14;;;;;;;4.15;0.95;;;;;;;;;;5055143;28;20538;-73
2023/06/30 11:41:41;;;;;;;4.20;1.00;;;;;;;;;;5054039;28;20045;-75
2023/06/30 11:44:07;;;;;;;4.35;1.05;;;;;;;;;;5051424;28;20048;-74
2023/06/30 11:46:36;;;;;;;3.13;0.70;;;;;;;;;;5050007;28;20056;-74
2023/06/30 11:49:02;;;;;;;4.40;1.00;;;;;;;;;;5054961;28;20053;-75
2023/06/30 11:51:30;;;;;;;4.07;0.95;;;;;;;;;;5056472;28;20037;-74
2023/06/30 11:53:56;;;;;;;7.13;1.17;;;;;;;;;;5061718;28;20045;-74
2023/06/30 11:56:22;;;;;;;8.30;1.20;;;;;;;;;;5049809;28;20128;-73
2023/06/30 11:58:48;;;;;;;6.07;1.17;;;;;;;;;;5037058;28;20073;-74
2023/06/30 12:01:14;;;;;;;9.68;1.20;;;;;;;;;;5037551;28;20053;-74
2023/06/30 12:03:40;;;;;;;5.85;1.10;;;;;;;;;;5055022;28;20119;-74
2023/06/30 12:06:07;;;;;;;6.50;1.20;;;;;;;;;;5053489;28;20037;-74
2023/06/30 12:08:36;;;;;;;6.80;1.42;;;;;;;;;;5052546;28;20187;-75
2023/06/30 12:11:07;;;;;;;5.78;1.17;;;;;;;;;;5057585;28;20037;-74
2023/06/30 12:13:33;;;;;;;4.93;1.13;;;;;;;;;;5056385;28;20045;-74
2023/06/30 12:16:03;;;;;;;5.93;1.30;;;;;;;;;;5058657;28;20053;-74
2023/06/30 12:18:38;;;;;;;4.07;1.00;;;;;;;;;;5058497;28;20045;-74
2023/06/30 12:21:12;;;;;;;5.82;1.17;;;;;;;;;;5052984;28;20076;-74
2023/06/30 12:23:45;;;;;;;6.88;1.15;;;;;;;;;;5061282;28;20049;-73
2023/06/30 12:26:15;;;;;;;7.75;1.48;;;;;;;;;;5047639;28;20534;-74
2023/06/30 12:28:44;;;;;;;7.93;1.42;;;;;;;;;;5061357;28;20041;-74
2023/06/30 12:31:10;;;;;;;5.30;1.20;;;;;;;;;;5054945;28;20063;-75
2023/06/30 12:33:37;;;;;;;6.38;1.38;;;;;;;;;;5061339;28;20549;-74
2023/06/30 12:36:06;;;;;;;5.68;1.35;;;;;;;;;;5060063;28;20694;-74
2023/06/30 12:38:32;;;;;;;6.63;1.20;;;;;;;;;;5061123;28;20072;-74
2023/06/30 12:40:58;;;;;;;6.53;1.20;;;;;;;;;;5065008;28;20410;-74
2023/06/30 12:43:27;;;;;;;6.93;1.20;;;;;;;;;;5060002;28;20132;-73
2023/06/30 12:45:53;;;;;;;3.60;1.10;;;;;;;;;;5061601;28;20065;-74
2023/06/30 12:48:19;;;;;;;7.05;1.42;;;;;;;;;;5054978;28;20048;-74
2023/06/30 12:50:45;;;;;;;7.13;1.55;;;;;;;;;;5049838;28;20099;-74
2023/06/30 12:53:11;;;;;;;5.53;1.30;;;;;;;;;;5043319;28;20505;-74
2023/06/30 12:55:37;;;;;;;5.18;1.20;;;;;;;;;;5058327;28;20091;-74
2023/06/30 12:58:03;;;;;;;6.35;1.30;;;;;;;;;;5064034;28;20063;-76
2023/06/30 13:00:29;;;;;;;5.20;1.38;;;;;;;;;;5063178;28;20573;-75
2023/06/30 13:02:55;;;;;;;5.70;1.40;;;;;;;;;;5060834;28;20097;-74
2023/06/30 13:05:21;;;;;;;6.85;1.50;;;;;;;;;;5043337;28;20103;-75
2023/06/30 13:07:47;;;;;;;6.18;1.60;;;;;;;;;;5057989;28;20071;-74
2023/06/30 13:10:13;;;;;;;6.38;1.70;;;;;;;;;;5057594;28;20049;-74
2023/06/30 13:12:41;;;;;;;5.03;1.30;;;;;;;;;;5050160;28;20087;-75
2023/06/30 13:15:07;;;;;;;6.07;1.40;;;;;;;;;;5057798;28;20131;-74
2023/06/30 13:17:34;;;;;;;7.57;1.50;;;;;;;;;;5056022;28;20082;-74
2023/06/30 13:20:00;;;;;;;8.35;1.48;;;;;;;;;;5056213;28;20119;-73
2023/06/30 13:22:26;;;;;;;5.47;1.40;;;;;;;;;;5056150;28;20052;-72
2023/06/30 13:24:52;;;;;;;4.55;1.20;;;;;;;;;;5050462;28;20436;-74
2023/06/30 13:27:18;;;;;;;7.30;1.58;;;;;;;;;;5050440;28;20403;-74
2023/06/30 13:29:48;;;;;;;6.35;1.60;;;;;;;;;;5056647;28;20059;-74
2023/06/30 13:32:14;;;;;;;4.25;1.38;;;;;;;;;;5058244;28;20041;-74
2023/06/30 13:34:41;;;;;;;8.35;1.42;;;;;;;;;;5058434;28;20444;-74
2023/06/30 13:37:07;;;;;;;5.65;1.73;;;;;;;;;;5057011;28;20079;-74
2023/06/30 13:39:33;;;;;;;4.85;1.38;;;;;;;;;;5052742;28;20374;-74
2023/06/30 13:42:02;;;;;;;5.22;1.65;;;;;;;;;;5037876;28;20041;-74
2023/06/30 13:44:29;;;;;;;7.07;1.48;;;;;;;;;;5058682;28;20055;-75
2023/06/30 13:46:55;;;;;;;4.72;1.23;;;;;;;;;;5056915;28;20119;-74
2023/06/30 13:49:21;;;;;;;8.60;1.70;;;;;;;;;;5054539;28;20477;-75
2023/06/30 13:51:47;;;;;;;7.25;1.63;;;;;;;;;;5050935;28;20033;-74
2023/06/30 13:54:14;;;;;;;5.72;1.27;;;;;;;;;;5058888;28;20045;-74
2023/06/30 13:56:41;;;;;;;5.82;1.25;;;;;;;;;;5058031;28;20134;-74
2023/06/30 13:59:07;;;;;;;5.75;1.25;;;;;;;;;;5055122;28;20136;-75
2023/06/30 14:01:33;;;;;;;5.45;1.25;;;;;;;;;;5053193;28;20109;-74
2023/06/30 14:03:59;;;;;;;7.22;1.50;;;;;;;;;;5054377;28;20079;-74
2023/06/30 14:06:26;;;;;;;4.45;1.20;;;;;;;;;;5054741;28;20065;-74
2023/06/30 14:08:52;;;;;;;4.47;1.10;;;;;;;;;;5060294;28;20112;-74
2023/06/30 14:11:20;;;;;;;6.88;1.50;;;;;;;;;;5054860;28;20049;-74
2023/06/30 14:13:46;;;;;;;5.18;1.55;;;;;;;;;;5062279;28;20056;-74
2023/06/30 14:16:12;;;;;;;9.02;4.60;;;;;;;;;;5060044;28;20048;-74
2023/06/30 14:18:38;;;;;;;4.30;1.40;;;;;;;;;;5057287;28;20080;-74
2023/06/30 14:21:05;;;;;;;5.25;1.40;;;;;;;;;;5055808;28;20041;-74
2023/06/30 14:23:31;;;;;;;5.03;1.40;;;;;;;;;;5056387;28;20549;-74
2023/06/30 14:25:57;;;;;;;4.45;1.10;;;;;;;;;;5056190;28;20585;-75
2023/06/30 14:28:24;;;;;;;5.22;1.25;;;;;;;;;;5056107;28;20044;-74
2023/06/30 14:30:50;;;;;;;5.25;1.27;;;;;;;;;;5051249;28;20056;-74
2023/06/30 14:33:16;;;;;;;7.72;1.52;;;;;;;;;;5052785;28;20057;-74
2023/06/30 14:35:42;;;;;;;6.07;1.10;;;;;;;;;;5049863;28;20098;-75
2023/06/30 14:38:08;;;;;;;5.82;1.60;;;;;;;;;;5052526;28;20046;-73